Greenwood Lake, NY (10925)

12:46 AM EDT on May 05, 2015 (GMT -0400)
Awosting Boathouse | | Change Station
CLOSE
Current Station
Personal Weather Station
Location: West Milford, NJ
Elevation: 650 ft
Nearby Weather Stations

Elev 650 ft 41.16 °N, 74.34 °W | Updated 1 minute ago

Partly Cloudy
Partly Cloudy
68.2 °F
Feels Like 68.2 °F
N
3.7
Wind Variable Wind from SW

Today
High -- | Low -- °F
--% Chance of Precip.
Yesterday
High -- | Low -- °F
Precip. -- in
5:50 AM 7:58 PM
Full, 99% visible
Pressure 30.16 in
Visibility 10.0 miles
Clouds Few 11000 ft
Dew Point 45 °F
Humidity 44%
Rainfall 0.00 in
Snow Depth Not available.
UV 0 out of 12
Pollen 11.20 out of 12
Air Quality Not available.
Flu Activity Widespread
METAR KFWN 050353Z AUTO 25003KT 10SM FEW110 19/07 A3016 RMK AO2 SLP211 T01940072

More Conditions Fewer Conditions

Pressure 30.16 in
Visibility 10.0 miles
Clouds Few 11000 ft
Dew Point 45 °F
Humidity 44%
Rainfall 0.00 in
Snow Depth Not available.
UV 0 out of 12
Pollen 11.20 out of 12
Air Quality Not available.
Flu Activity Widespread
METAR KFWN 050353Z AUTO 25003KT 10SM FEW110 19/07 A3016 RMK AO2 SLP211 T01940072

More Conditions Fewer Conditions

Nepal has a long way to go to dig out and rebuild from a devastating earthquake. We have teamed up with several charities and organizations to make contributing to the relief effort as easy as possible.
How you can help: Portlight Strategies | Red Cross

10-Day Weather Forecast

Almanac

Astronomy

May. 05, 2015 Rise Set
Actual Time
Civil Twilight
Nautical Twilight
Astronomical Twilight
Moon
Length of Visible Light
Length of Day
Tomorrow will be .
, % of the Moon is Illuminated

Today's Extremes

State Highs State Lows

Community

WunderPhotos

Upload Photos

1,818,820 photos uploaded!

WunderBlogs® & News

Nearby

Air Quality

  Air Quality AQ Index Pollutant
Not available.

Snow Depth

Station Depth Elevation

Earthquake Activity

City Distance Mag. Time & Date
Minimum magnitude displayed is 2.5.

Coastal Water Temperatures

Place Temperature

Stations

Nearby Weather Stations

Station Location Temp. Windchill Dew Point Humidity Wind Precip. Elev Updated Type